Time;durP1;ratioP1;P1;durP2;ratioP2;P2;SDS_P1;SDS_P2;PMS_P1;PMS_P2;Temp;Humidity;BMP_temperature;BMP_pressure;BME280_temperature;BME280_humidity;BME280_pressure;Samples;Min_cycle;Max_cycle;Signal;HPM_P1;HPM_P2
2023/07/22 00:02:12;;;;;;;35.70;21.63;;;;;;;;;;6218094;28;20054;-60
2023/07/22 00:05:13;;;;;;;35.87;22.60;;;;;;;;;;6214715;28;20057;-60
2023/07/22 00:08:13;;;;;;;34.00;19.47;;;;;;;;;;6216386;28;20041;-59
2023/07/22 00:11:14;;;;;;;31.33;20.93;;;;;;;;;;6223296;28;21578;-60
2023/07/22 00:14:15;;;;;;;36.63;22.20;;;;;;;;;;6223414;28;20203;-59
2023/07/22 00:17:15;;;;;;;33.73;21.77;;;;;;;;;;6220363;28;21337;-59
2023/07/22 00:20:16;;;;;;;39.23;23.97;;;;;;;;;;6202146;28;20045;-60
2023/07/22 00:23:17;;;;;;;37.20;20.87;;;;;;;;;;6221923;28;20060;-60
2023/07/22 00:26:17;;;;;;;35.20;20.73;;;;;;;;;;6221395;28;20052;-59
2023/07/22 00:29:18;;;;;;;42.13;24.53;;;;;;;;;;6226477;28;20070;-60
2023/07/22 00:32:19;;;;;;;37.20;21.60;;;;;;;;;;6223856;28;20049;-60
2023/07/22 00:35:19;;;;;;;37.33;21.37;;;;;;;;;;6219367;28;20049;-60
2023/07/22 00:38:20;;;;;;;59.70;21.07;;;;;;;;;;6202540;28;20107;-60
2023/07/22 00:41:20;;;;;;;38.17;20.73;;;;;;;;;;6222005;28;20060;-60
2023/07/22 00:44:21;;;;;;;37.47;22.13;;;;;;;;;;6221815;28;20049;-60
2023/07/22 00:47:22;;;;;;;39.73;22.63;;;;;;;;;;6220737;28;20660;-60
2023/07/22 00:50:24;;;;;;;35.17;21.40;;;;;;;;;;6222070;28;20079;-60
2023/07/22 00:53:24;;;;;;;39.70;22.08;;;;;;;;;;6223450;28;20057;-59
2023/07/22 00:56:25;;;;;;;39.17;21.77;;;;;;;;;;6218299;28;20757;-60
2023/07/22 00:59:26;;;;;;;35.70;21.47;;;;;;;;;;6222840;28;20049;-60
2023/07/22 01:02:27;;;;;;;56.53;21.23;;;;;;;;;;6224524;28;20044;-60
2023/07/22 01:05:27;;;;;;;39.43;20.67;;;;;;;;;;6227437;28;20402;-60
2023/07/22 01:08:28;;;;;;;35.20;21.13;;;;;;;;;;6223207;28;20204;-60
2023/07/22 01:11:29;;;;;;;55.83;21.47;;;;;;;;;;6229206;28;20397;-60
2023/07/22 01:14:29;;;;;;;61.57;22.17;;;;;;;;;;6224140;28;20149;-59
2023/07/22 01:17:30;;;;;;;36.27;20.63;;;;;;;;;;6223212;28;20217;-58
2023/07/22 01:20:31;;;;;;;38.63;20.77;;;;;;;;;;6220792;28;20049;-60
2023/07/22 01:23:32;;;;;;;38.40;21.33;;;;;;;;;;6220832;28;20066;-60
2023/07/22 01:26:32;;;;;;;40.80;20.83;;;;;;;;;;6224295;28;20555;-60
2023/07/22 01:29:33;;;;;;;39.40;21.87;;;;;;;;;;6222078;28;20049;-59
2023/07/22 01:32:34;;;;;;;41.50;23.63;;;;;;;;;;6222906;28;20045;-60
2023/07/22 01:35:34;;;;;;;40.20;21.67;;;;;;;;;;6223569;28;20539;-60
2023/07/22 01:38:35;;;;;;;32.83;18.33;;;;;;;;;;6227689;28;20439;-60
2023/07/22 01:41:36;;;;;;;29.40;18.00;;;;;;;;;;6223876;28;20046;-60
2023/07/22 01:44:36;;;;;;;25.27;15.77;;;;;;;;;;6224287;28;20073;-60
2023/07/22 01:47:38;;;;;;;30.93;16.63;;;;;;;;;;6223189;28;20051;-60
2023/07/22 01:50:39;;;;;;;37.83;15.77;;;;;;;;;;6220749;28;20546;-60
2023/07/22 01:53:39;;;;;;;24.77;14.70;;;;;;;;;;6221901;28;20049;-60
2023/07/22 01:56:40;;;;;;;25.53;14.57;;;;;;;;;;6221993;28;20164;-59
2023/07/22 01:59:40;;;;;;;30.90;14.90;;;;;;;;;;6223290;28;20045;-60
2023/07/22 02:02:42;;;;;;;24.67;12.70;;;;;;;;;;6222660;28;20050;-60
2023/07/22 02:05:43;;;;;;;26.07;13.17;;;;;;;;;;6222483;28;20050;-60
2023/07/22 02:08:44;;;;;;;25.05;12.95;;;;;;;;;;6221298;28;20046;-59
2023/07/22 02:11:44;;;;;;;24.67;14.03;;;;;;;;;;6222632;28;20385;-60
2023/07/22 02:14:45;;;;;;;27.43;15.50;;;;;;;;;;6224912;28;20069;-60
2023/07/22 02:17:45;;;;;;;32.57;16.57;;;;;;;;;;6222625;28;20413;-60
2023/07/22 02:20:46;;;;;;;30.37;17.07;;;;;;;;;;6220363;28;20153;-60
2023/07/22 02:23:47;;;;;;;32.30;17.57;;;;;;;;;;6223066;28;20057;-59
2023/07/22 02:26:47;;;;;;;30.17;16.77;;;;;;;;;;6221289;28;20049;-60
2023/07/22 02:29:48;;;;;;;32.07;17.67;;;;;;;;;;6220737;28;20046;-60
2023/07/22 02:32:49;;;;;;;33.67;17.57;;;;;;;;;;6221578;28;20037;-60
2023/07/22 02:35:49;;;;;;;28.30;15.67;;;;;;;;;;6222366;28;20535;-60
2023/07/22 02:38:50;;;;;;;30.03;14.63;;;;;;;;;;6217078;28;20151;-60
2023/07/22 02:41:51;;;;;;;24.73;13.37;;;;;;;;;;6221371;28;20393;-59
2023/07/22 02:44:51;;;;;;;24.97;13.10;;;;;;;;;;6221260;28;20639;-60
2023/07/22 02:47:52;;;;;;;25.40;12.40;;;;;;;;;;6219003;28;20046;-60
2023/07/22 02:50:52;;;;;;;20.53;11.80;;;;;;;;;;6219148;28;20049;-59
2023/07/22 02:53:53;;;;;;;26.97;12.40;;;;;;;;;;6221098;28;20061;-60
2023/07/22 02:56:54;;;;;;;21.67;12.45;;;;;;;;;;6222745;28;20061;-60
2023/07/22 02:59:56;;;;;;;24.97;12.77;;;;;;;;;;6219648;28;20125;-60
2023/07/22 03:03:00;;;;;;;30.40;14.30;;;;;;;;;;6219210;28;21706;-59
2023/07/22 03:06:03;;;;;;;30.08;14.27;;;;;;;;;;6220106;28;20042;-60
2023/07/22 03:09:04;;;;;;;29.25;14.45;;;;;;;;;;6220636;28;20053;-60
2023/07/22 03:12:05;;;;;;;35.63;16.33;;;;;;;;;;6219501;28;20042;-60
2023/07/22 03:15:08;;;;;;;30.07;16.13;;;;;;;;;;6220296;28;20408;-60
2023/07/22 03:18:09;;;;;;;42.22;20.48;;;;;;;;;;6219882;28;20420;-60
2023/07/22 03:21:10;;;;;;;50.92;22.48;;;;;;;;;;6219291;28;20498;-60
2023/07/22 03:24:11;;;;;;;50.77;23.10;;;;;;;;;;6220386;28;20054;-60
2023/07/22 03:27:12;;;;;;;56.47;25.33;;;;;;;;;;6219522;28;20045;-59
2023/07/22 03:30:14;;;;;;;55.17;25.37;;;;;;;;;;6217030;28;20049;-60
2023/07/22 03:33:15;;;;;;;56.15;27.15;;;;;;;;;;6219724;28;20844;-60
2023/07/22 03:36:15;;;;;;;56.53;26.30;;;;;;;;;;6221049;28;20100;-60
2023/07/22 03:39:16;;;;;;;57.80;27.03;;;;;;;;;;6217643;28;20085;-60
2023/07/22 03:42:17;;;;;;;67.40;29.25;;;;;;;;;;6218141;28;20056;-60
2023/07/22 03:45:19;;;;;;;64.23;29.63;;;;;;;;;;6218541;28;20072;-60
2023/07/22 03:48:19;;;;;;;69.35;29.98;;;;;;;;;;6219665;28;20056;-60
2023/07/22 03:51:20;;;;;;;70.38;30.63;;;;;;;;;;6218373;28;20073;-60
2023/07/22 03:54:20;;;;;;;73.00;30.30;;;;;;;;;;6220662;28;20045;-60
2023/07/22 03:57:26;;;;;;;72.00;30.77;;;;;;;;;;6222480;28;20816;-60
2023/07/22 04:00:27;;;;;;;70.10;30.35;;;;;;;;;;6230498;28;20049;-60
2023/07/22 04:03:30;;;;;;;80.03;31.98;;;;;;;;;;6230518;28;20099;-60
2023/07/22 04:06:30;;;;;;;76.63;31.00;;;;;;;;;;6230565;28;20493;-60
2023/07/22 04:09:31;;;;;;;75.77;33.57;;;;;;;;;;6217878;28;20569;-60
2023/07/22 04:12:31;;;;;;;73.10;31.40;;;;;;;;;;6219447;28;20058;-60
2023/07/22 04:15:32;;;;;;;73.38;32.22;;;;;;;;;;6221891;28;20054;-60
2023/07/22 04:18:34;;;;;;;81.40;34.13;;;;;;;;;;6221836;28;20058;-60
2023/07/22 04:21:35;;;;;;;83.43;33.45;;;;;;;;;;6202018;28;20082;-60
2023/07/22 04:24:35;;;;;;;83.32;34.95;;;;;;;;;;6221062;28;20060;-60
2023/07/22 04:27:36;;;;;;;93.18;35.50;;;;;;;;;;6223288;28;20049;-61
2023/07/22 04:30:37;;;;;;;85.00;37.70;;;;;;;;;;6219114;28;20061;-60
2023/07/22 04:33:38;;;;;;;83.18;34.65;;;;;;;;;;6231616;28;20049;-60
2023/07/22 04:36:39;;;;;;;80.80;34.67;;;;;;;;;;6220934;28;20801;-60
2023/07/22 04:39:39;;;;;;;79.27;35.13;;;;;;;;;;6220737;28;20482;-60
2023/07/22 04:42:41;;;;;;;74.10;34.03;;;;;;;;;;6219828;28;20081;-60
2023/07/22 04:45:44;;;;;;;81.70;33.75;;;;;;;;;;6219411;28;20469;-60
2023/07/22 04:48:45;;;;;;;88.40;34.00;;;;;;;;;;6216832;28;20049;-60
2023/07/22 04:51:46;;;;;;;76.47;33.47;;;;;;;;;;6217965;28;20534;-60
2023/07/22 04:54:47;;;;;;;71.33;33.27;;;;;;;;;;6218584;28;20046;-60
2023/07/22 04:57:48;;;;;;;78.20;33.83;;;;;;;;;;6241291;28;20045;-60
2023/07/22 05:00:48;;;;;;;70.55;32.58;;;;;;;;;;6230994;28;20054;-60
2023/07/22 05:03:49;;;;;;;73.43;31.20;;;;;;;;;;6224904;28;20889;-60
2023/07/22 05:06:50;;;;;;;74.17;32.03;;;;;;;;;;6225469;28;20041;-59
2023/07/22 05:09:54;;;;;;;66.72;29.20;;;;;;;;;;6222503;28;20099;-60
2023/07/22 05:12:56;;;;;;;67.38;30.08;;;;;;;;;;6222147;28;20133;-60
2023/07/22 05:15:57;;;;;;;56.30;27.98;;;;;;;;;;6224935;28;20048;-60
2023/07/22 05:18:57;;;;;;;61.38;26.75;;;;;;;;;;6225979;28;20042;-60
2023/07/22 05:21:58;;;;;;;63.47;28.90;;;;;;;;;;6221506;28;20152;-60
2023/07/22 05:24:59;;;;;;;59.40;27.50;;;;;;;;;;6234622;28;20056;-60
2023/07/22 05:27:59;;;;;;;50.73;25.87;;;;;;;;;;6221774;28;20037;-60
2023/07/22 05:31:01;;;;;;;62.43;27.23;;;;;;;;;;6220006;28;20097;-60
2023/07/22 05:34:01;;;;;;;55.75;26.42;;;;;;;;;;6227382;28;20045;-60
2023/07/22 05:37:02;;;;;;;57.28;25.75;;;;;;;;;;6224201;28;20202;-60
2023/07/22 05:40:03;;;;;;;49.67;23.80;;;;;;;;;;6228637;28;20504;-60
2023/07/22 05:43:04;;;;;;;44.47;22.70;;;;;;;;;;6224445;28;20045;-60
2023/07/22 05:46:04;;;;;;;42.85;21.52;;;;;;;;;;6221653;28;20048;-60
2023/07/22 05:49:05;;;;;;;42.45;21.23;;;;;;;;;;6223186;28;20091;-61
2023/07/22 05:52:06;;;;;;;39.30;19.50;;;;;;;;;;6220594;28;20413;-60
2023/07/22 05:55:07;;;;;;;36.07;19.33;;;;;;;;;;6224724;28;20062;-60
2023/07/22 05:58:17;;;;;;;38.88;18.02;;;;;;;;;;6223728;28;20069;-60
2023/07/22 06:01:18;;;;;;;29.35;16.98;;;;;;;;;;6222469;28;20503;-58
2023/07/22 06:04:18;;;;;;;30.50;16.00;;;;;;;;;;6222588;28;20136;-60
2023/07/22 06:07:19;;;;;;;26.92;14.68;;;;;;;;;;6221998;28;20405;-60
2023/07/22 06:10:19;;;;;;;26.63;14.37;;;;;;;;;;6223802;28;20080;-60
2023/07/22 06:13:20;;;;;;;43.15;14.80;;;;;;;;;;6223884;28;20046;-60
2023/07/22 06:16:21;;;;;;;26.77;14.97;;;;;;;;;;6221271;28;20568;-60
2023/07/22 06:19:23;;;;;;;32.67;14.43;;;;;;;;;;6221105;28;20054;-60
2023/07/22 06:22:24;;;;;;;29.38;13.60;;;;;;;;;;6217992;28;21040;-60
2023/07/22 06:25:24;;;;;;;27.13;12.45;;;;;;;;;;6217097;28;20096;-60
2023/07/22 06:28:25;;;;;;;23.07;12.80;;;;;;;;;;6220121;28;20092;-60
2023/07/22 06:31:30;;;;;;;23.35;12.10;;;;;;;;;;6219224;28;20034;-60
2023/07/22 06:34:30;;;;;;;23.95;12.63;;;;;;;;;;6222788;28;20481;-61
2023/07/22 06:37:31;;;;;;;23.57;12.60;;;;;;;;;;6222882;28;20079;-60
2023/07/22 06:40:32;;;;;;;22.25;12.60;;;;;;;;;;6221244;28;20045;-60
2023/07/22 06:43:32;;;;;;;25.17;11.87;;;;;;;;;;6222494;28;20049;-61
2023/07/22 06:46:33;;;;;;;22.70;12.23;;;;;;;;;;6223182;28;20073;-60
2023/07/22 06:49:33;;;;;;;23.57;11.73;;;;;;;;;;6221800;28;20538;-60
2023/07/22 06:52:34;;;;;;;19.90;11.30;;;;;;;;;;6222320;28;20136;-60
2023/07/22 06:55:34;;;;;;;25.10;12.80;;;;;;;;;;6221661;28;20037;-60
2023/07/22 06:58:35;;;;;;;22.67;10.97;;;;;;;;;;6221802;28;20069;-60
2023/07/22 07:01:36;;;;;;;23.20;12.57;;;;;;;;;;6221489;28;20127;-60
2023/07/22 07:04:36;;;;;;;21.60;12.17;;;;;;;;;;6223620;28;20480;-60
2023/07/22 07:07:37;;;;;;;28.53;12.50;;;;;;;;;;6222912;28;20041;-60
2023/07/22 07:10:39;;;;;;;21.17;11.70;;;;;;;;;;6222020;28;20084;-60
2023/07/22 07:13:39;;;;;;;;;;;;;;;;;;6221435;28;20511;-60
2023/07/22 07:16:40;;;;;;;18.00;10.65;;;;;;;;;;6230815;28;19925;-61
2023/07/22 07:19:40;;;;;;;21.37;10.90;;;;;;;;;;6227345;28;20068;-60
2023/07/22 07:22:41;;;;;;;18.60;10.03;;;;;;;;;;6225371;28;20148;-61
2023/07/22 07:25:42;;;;;;;20.00;10.37;;;;;;;;;;6220522;28;20054;-61
2023/07/22 07:28:43;;;;;;;19.52;10.40;;;;;;;;;;6221502;28;20681;-61
2023/07/22 07:31:44;;;;;;;21.93;10.50;;;;;;;;;;6229364;28;20049;-61
2023/07/22 07:34:45;;;;;;;15.20;9.80;;;;;;;;;;6225764;28;20145;-61
2023/07/22 07:37:45;;;;;;;16.53;10.70;;;;;;;;;;6230584;28;20053;-59
2023/07/22 07:40:46;;;;;;;19.77;10.60;;;;;;;;;;6230229;28;20065;-60
2023/07/22 07:43:47;;;;;;;17.47;9.03;;;;;;;;;;6232228;28;20054;-60
2023/07/22 07:46:47;;;;;;;18.10;9.00;;;;;;;;;;6225306;28;20048;-61
2023/07/22 07:49:48;;;;;;;15.43;8.77;;;;;;;;;;6232432;28;20049;-61
2023/07/22 07:52:49;;;;;;;17.70;8.55;;;;;;;;;;6232735;28;20107;-61
2023/07/22 07:55:50;;;;;;;15.13;8.10;;;;;;;;;;6217510;28;20892;-61
2023/07/22 07:58:53;;;;;;;12.90;7.27;;;;;;;;;;6217740;28;20568;-61
2023/07/22 08:01:53;;;;;;;12.55;7.32;;;;;;;;;;6216647;28;20056;-60
2023/07/22 08:04:54;;;;;;;13.93;7.77;;;;;;;;;;6220024;28;20638;-60
2023/07/22 08:07:55;;;;;;;14.93;7.53;;;;;;;;;;6218031;28;20046;-60
2023/07/22 08:11:03;;;;;;;10.43;6.50;;;;;;;;;;6216302;28;20069;-61
2023/07/22 08:14:05;;;;;;;15.02;7.88;;;;;;;;;;6215914;28;20629;-61
2023/07/22 08:17:06;;;;;;;10.68;6.60;;;;;;;;;;6220279;28;20052;-60
2023/07/22 08:20:08;;;;;;;12.53;6.90;;;;;;;;;;6217466;28;20049;-61
2023/07/22 08:23:08;;;;;;;13.38;6.63;;;;;;;;;;6220374;28;20053;-61
2023/07/22 08:26:09;;;;;;;11.20;6.03;;;;;;;;;;6220460;28;20046;-60
2023/07/22 08:29:10;;;;;;;11.57;6.20;;;;;;;;;;6218257;28;20092;-61
2023/07/22 08:32:11;;;;;;;10.80;6.45;;;;;;;;;;6219458;28;20068;-60
2023/07/22 08:35:11;;;;;;;11.17;6.27;;;;;;;;;;6225015;28;20140;-61
2023/07/22 08:38:12;;;;;;;13.83;6.43;;;;;;;;;;6224552;28;20488;-60
2023/07/22 08:41:16;;;;;;;11.23;6.70;;;;;;;;;;6222989;28;20058;-61
2023/07/22 08:44:20;;;;;;;11.80;6.63;;;;;;;;;;6224481;28;20404;-61
2023/07/22 08:47:22;;;;;;;11.48;7.22;;;;;;;;;;6222147;28;20591;-60
2023/07/22 08:50:29;;;;;;;9.98;6.38;;;;;;;;;;6223752;28;20054;-60
2023/07/22 08:53:33;;;;;;;11.93;6.57;;;;;;;;;;6222289;28;20071;-61
2023/07/22 08:56:33;;;;;;;12.63;7.05;;;;;;;;;;6222979;28;20061;-60
2023/07/22 08:59:35;;;;;;;10.65;6.40;;;;;;;;;;6220823;28;20168;-60
2023/07/22 09:02:36;;;;;;;15.20;6.38;;;;;;;;;;6222425;28;20735;-61
2023/07/22 09:05:38;;;;;;;11.60;6.80;;;;;;;;;;6222320;28;20088;-61
2023/07/22 09:08:39;;;;;;;14.13;7.13;;;;;;;;;;6222436;28;20073;-60
2023/07/22 09:11:40;;;;;;;10.87;6.30;;;;;;;;;;6218285;28;20412;-61
2023/07/22 09:14:41;;;;;;;10.57;6.80;;;;;;;;;;6224537;28;20052;-61
2023/07/22 09:17:42;;;;;;;9.40;5.97;;;;;;;;;;6223112;28;20393;-60
2023/07/22 09:20:43;;;;;;;10.93;5.90;;;;;;;;;;6224525;28;20053;-61
2023/07/22 09:23:44;;;;;;;9.95;6.15;;;;;;;;;;6221288;28;20050;-61
2023/07/22 09:26:44;;;;;;;9.07;5.67;;;;;;;;;;6223990;28;20056;-61
2023/07/22 09:29:48;;;;;;;12.30;5.80;;;;;;;;;;6222087;28;20506;-61
2023/07/22 09:32:50;;;;;;;10.70;6.35;;;;;;;;;;6219901;28;20041;-61
2023/07/22 09:35:51;;;;;;;9.00;5.97;;;;;;;;;;6220802;28;20060;-61
2023/07/22 09:39:00;;;;;;;11.47;6.20;;;;;;;;;;6222000;28;20393;-60
2023/07/22 09:42:02;;;;;;;9.93;6.60;;;;;;;;;;6222186;28;20063;-61
2023/07/22 09:45:03;;;;;;;10.07;6.00;;;;;;;;;;6218609;28;20076;-61
2023/07/22 09:48:05;;;;;;;10.43;6.38;;;;;;;;;;6222595;28;20046;-61
2023/07/22 09:51:06;;;;;;;11.48;6.30;;;;;;;;;;6222649;28;20045;-61
2023/07/22 09:54:07;;;;;;;11.63;6.60;;;;;;;;;;6221552;28;20041;-61
2023/07/22 09:57:08;;;;;;;9.75;6.20;;;;;;;;;;6223197;28;20041;-61
2023/07/22 10:00:10;;;;;;;10.33;6.00;;;;;;;;;;6224520;28;20128;-61
2023/07/22 10:03:11;;;;;;;12.32;6.43;;;;;;;;;;6222610;28;20412;-60
2023/07/22 10:06:14;;;;;;;10.55;6.47;;;;;;;;;;6222249;28;20116;-62
2023/07/22 10:09:15;;;;;;;12.30;6.55;;;;;;;;;;6227968;28;20555;-61
2023/07/22 10:12:16;;;;;;;12.27;6.65;;;;;;;;;;6222669;28;22295;-61
2023/07/22 10:15:20;;;;;;;9.00;6.07;;;;;;;;;;6221879;28;20057;-61
2023/07/22 10:18:21;;;;;;;11.77;6.25;;;;;;;;;;6222603;28;20046;-61
2023/07/22 10:21:23;;;;;;;9.45;6.82;;;;;;;;;;6221297;28;20050;-61
2023/07/22 10:24:24;;;;;;;9.82;6.40;;;;;;;;;;6220828;28;20077;-61
2023/07/22 10:27:26;;;;;;;12.00;6.53;;;;;;;;;;6223717;28;20049;-61
2023/07/22 10:30:27;;;;;;;9.77;6.50;;;;;;;;;;6219480;28;20077;-61
2023/07/22 10:33:29;;;;;;;10.93;6.90;;;;;;;;;;6221386;28;20092;-61
2023/07/22 10:36:30;;;;;;;11.35;6.55;;;;;;;;;;6219917;28;20475;-61
2023/07/22 10:39:31;;;;;;;11.90;6.70;;;;;;;;;;6225465;28;20053;-61
2023/07/22 10:42:32;;;;;;;11.17;6.80;;;;;;;;;;6242176;28;20073;-63
2023/07/22 10:45:40;;;;;;;9.07;6.60;;;;;;;;;;6241929;28;20041;-60
2023/07/22 10:48:42;;;;;;;10.88;6.75;;;;;;;;;;6243053;28;20058;-62
2023/07/22 10:51:50;;;;;;;;;;;;;;;;;;6242982;28;20122;-62
2023/07/22 10:54:50;;;;;;;9.88;6.60;;;;;;;;;;6240918;28;20004;-62
2023/07/22 10:57:54;;;;;;;11.17;6.20;;;;;;;;;;6242068;28;20052;-62
2023/07/22 11:00:54;;;;;;;9.23;6.47;;;;;;;;;;6242450;28;20144;-63
2023/07/22 11:04:13;;;;;;;8.70;5.70;;;;;;;;;;6242023;28;20425;-61
2023/07/22 11:07:14;;;;;;;10.50;6.32;;;;;;;;;;6240786;28;20056;-62
2023/07/22 11:10:19;;;;;;;9.40;6.10;;;;;;;;;;6243095;28;20050;-62
2023/07/22 11:13:28;;;;;;;9.63;5.53;;;;;;;;;;6242310;28;20056;-62
2023/07/22 11:16:28;;;;;;;8.27;5.75;;;;;;;;;;6240970;28;20037;-61
2023/07/22 11:19:30;;;;;;;7.80;5.73;;;;;;;;;;6242021;28;20060;-62
2023/07/22 11:22:30;;;;;;;8.60;5.55;;;;;;;;;;6241681;28;20376;-62
2023/07/22 11:25:33;;;;;;;9.93;5.97;;;;;;;;;;6241248;28;20057;-62
2023/07/22 11:28:34;;;;;;;8.98;6.07;;;;;;;;;;6239112;28;20045;-61
2023/07/22 11:31:42;;;;;;;12.67;5.87;;;;;;;;;;6242088;28;20408;-62
2023/07/22 11:34:46;;;;;;;8.38;5.85;;;;;;;;;;6233845;28;20133;-61
2023/07/22 11:37:46;;;;;;;10.90;5.47;;;;;;;;;;6228232;28;20056;-61
2023/07/22 11:40:47;;;;;;;8.50;5.20;;;;;;;;;;6241639;28;20049;-62
2023/07/22 11:43:48;;;;;;;8.43;5.27;;;;;;;;;;6241710;28;20050;-60
2023/07/22 11:47:03;;;;;;;7.83;5.07;;;;;;;;;;6240650;28;20052;-60
2023/07/22 11:50:04;;;;;;;7.75;5.28;;;;;;;;;;6240479;28;20091;-61
2023/07/22 11:53:06;;;;;;;13.25;7.15;;;;;;;;;;6241668;28;20049;-62
2023/07/22 11:56:07;;;;;;;10.43;6.47;;;;;;;;;;6242089;28;20056;-61
2023/07/22 11:59:08;;;;;;;8.40;5.83;;;;;;;;;;6239760;28;20053;-60
2023/07/22 12:02:13;;;;;;;8.45;5.45;;;;;;;;;;6241358;28;20041;-61
2023/07/22 12:05:21;;;;;;;11.43;5.72;;;;;;;;;;6241733;28;20076;-61
2023/07/22 12:08:22;;;;;;;9.32;5.50;;;;;;;;;;6245630;28;20049;-60
2023/07/22 12:11:24;;;;;;;11.43;5.47;;;;;;;;;;6246371;28;20057;-61
2023/07/22 12:14:32;;;;;;;10.90;6.40;;;;;;;;;;6246028;28;20102;-61
2023/07/22 12:18:01;;;;;;;10.65;6.70;;;;;;;;;;6238271;28;20164;-61
2023/07/22 12:21:03;;;;;;;8.05;5.78;;;;;;;;;;6224198;28;20044;-60
2023/07/22 12:24:07;;;;;;;9.93;6.03;;;;;;;;;;6242906;28;20099;-61
2023/07/22 12:27:07;;;;;;;9.65;6.13;;;;;;;;;;6242910;28;20176;-63
2023/07/22 12:30:08;;;;;;;9.77;5.87;;;;;;;;;;6221349;28;20456;-62
2023/07/22 12:33:09;;;;;;;10.70;5.70;;;;;;;;;;6222225;28;20555;-62
2023/07/22 12:36:09;;;;;;;9.50;5.90;;;;;;;;;;6225160;28;20050;-61
2023/07/22 12:39:10;;;;;;;9.90;5.80;;;;;;;;;;6226354;28;20051;-61
2023/07/22 12:42:10;;;;;;;7.20;5.43;;;;;;;;;;6222613;28;20042;-61
2023/07/22 12:45:13;;;;;;;8.90;6.07;;;;;;;;;;6211847;28;20041;-62
2023/07/22 12:48:13;;;;;;;11.95;6.18;;;;;;;;;;6205412;28;20049;-62
2023/07/22 12:51:14;;;;;;;10.33;6.07;;;;;;;;;;6226571;28;20108;-62
2023/07/22 12:54:15;;;;;;;9.33;5.93;;;;;;;;;;6218277;28;20480;-62
2023/07/22 12:57:16;;;;;;;11.17;6.00;;;;;;;;;;6224254;28;20085;-63
2023/07/22 13:00:16;;;;;;;9.20;5.87;;;;;;;;;;6220493;28;20056;-63
2023/07/22 13:03:17;;;;;;;9.27;6.30;;;;;;;;;;6222955;28;20622;-63
2023/07/22 13:06:18;;;;;;;9.50;6.17;;;;;;;;;;6222535;28;20072;-63
2023/07/22 13:09:19;;;;;;;10.23;6.13;;;;;;;;;;6222231;28;20060;-63
2023/07/22 13:12:20;;;;;;;10.30;6.75;;;;;;;;;;6222405;28;20053;-62
2023/07/22 13:15:21;;;;;;;10.27;6.33;;;;;;;;;;6225478;28;20228;-63
2023/07/22 13:18:21;;;;;;;10.87;6.53;;;;;;;;;;6224207;28;20045;-61
2023/07/22 13:21:22;;;;;;;14.83;6.27;;;;;;;;;;6226004;28;20506;-62
2023/07/22 13:24:22;;;;;;;11.93;6.40;;;;;;;;;;6225253;28;20485;-62
2023/07/22 13:27:23;;;;;;;10.10;6.17;;;;;;;;;;6223037;28;20049;-63
2023/07/22 13:30:23;;;;;;;11.03;6.73;;;;;;;;;;6219393;28;20102;-61
2023/07/22 13:33:26;;;;;;;9.80;6.47;;;;;;;;;;6220770;28;20038;-61
2023/07/22 13:36:26;;;;;;;10.13;6.95;;;;;;;;;;6223481;28;20045;-62
2023/07/22 13:39:27;;;;;;;8.47;6.13;;;;;;;;;;6238600;28;20141;-62
2023/07/22 13:42:28;;;;;;;9.33;6.27;;;;;;;;;;6218143;28;20053;-61
2023/07/22 13:45:28;;;;;;;11.67;6.60;;;;;;;;;;6221439;28;20092;-63
2023/07/22 13:48:29;;;;;;;13.37;6.80;;;;;;;;;;6220513;28;20049;-63
2023/07/22 13:51:30;;;;;;;11.43;6.97;;;;;;;;;;6220695;28;20569;-61
2023/07/22 13:54:30;;;;;;;10.90;6.50;;;;;;;;;;6221211;28;20058;-62
2023/07/22 13:57:31;;;;;;;13.23;6.47;;;;;;;;;;6222106;28;20176;-61
2023/07/22 14:00:31;;;;;;;11.20;6.50;;;;;;;;;;6222858;28;20393;-61
2023/07/22 14:03:32;;;;;;;12.20;6.27;;;;;;;;;;6226287;28;20056;-61
2023/07/22 14:06:32;;;;;;;10.30;6.53;;;;;;;;;;6229700;28;20054;-62
2023/07/22 14:09:33;;;;;;;15.10;6.60;;;;;;;;;;6223957;28;20057;-62
2023/07/22 14:12:34;;;;;;;13.53;6.97;;;;;;;;;;6231105;28;20054;-61
2023/07/22 14:15:36;;;;;;;9.70;6.20;;;;;;;;;;6232192;28;20052;-62
2023/07/22 14:18:36;;;;;;;9.85;6.55;;;;;;;;;;6223237;28;20057;-61
2023/07/22 14:21:37;;;;;;;9.63;6.03;;;;;;;;;;6221791;28;20053;-62
2023/07/22 14:24:37;;;;;;;9.73;6.63;;;;;;;;;;6222542;28;20053;-62
2023/07/22 14:27:39;;;;;;;11.37;6.63;;;;;;;;;;6234545;28;20526;-62
2023/07/22 14:30:40;;;;;;;11.15;6.18;;;;;;;;;;6229451;28;20045;-62
2023/07/22 14:33:43;;;;;;;10.02;6.28;;;;;;;;;;6223488;28;20496;-62
2023/07/22 14:36:43;;;;;;;9.43;6.17;;;;;;;;;;6232394;28;20112;-62
2023/07/22 14:39:44;;;;;;;9.10;5.50;;;;;;;;;;6221515;28;20049;-61
2023/07/22 14:42:44;;;;;;;9.83;6.07;;;;;;;;;;6222609;28;20045;-62
2023/07/22 14:45:45;;;;;;;8.57;5.83;;;;;;;;;;6220313;28;20184;-63
2023/07/22 14:48:46;;;;;;;;;;;;;;;;;;6222618;28;20132;-61
2023/07/22 14:51:47;;;;;;;9.83;5.60;;;;;;;;;;6221348;28;20372;-61
2023/07/22 14:54:49;;;;;;;9.90;5.80;;;;;;;;;;6218256;28;20050;-61
2023/07/22 14:57:49;;;;;;;11.13;5.78;;;;;;;;;;6220323;28;20546;-60
2023/07/22 15:00:50;;;;;;;10.33;5.83;;;;;;;;;;6221405;28;20049;-61
2023/07/22 15:03:51;;;;;;;9.45;6.22;;;;;;;;;;6223097;28;20555;-61
2023/07/22 15:06:52;;;;;;;9.43;5.80;;;;;;;;;;6222902;28;20046;-60
2023/07/22 15:09:53;;;;;;;9.65;5.65;;;;;;;;;;6222217;28;20136;-59
2023/07/22 15:12:54;;;;;;;9.18;5.28;;;;;;;;;;6239613;28;20045;-62
2023/07/22 15:15:58;;;;;;;11.33;5.73;;;;;;;;;;6229987;28;20056;-62
2023/07/22 15:18:58;;;;;;;16.08;7.75;;;;;;;;;;6223626;28;20046;-62
2023/07/22 15:21:59;;;;;;;10.67;6.27;;;;;;;;;;6220765;28;20583;-62
2023/07/22 15:24:59;;;;;;;8.07;5.17;;;;;;;;;;6223565;28;20417;-61
2023/07/22 15:28:00;;;;;;;10.80;5.87;;;;;;;;;;6222035;28;20054;-61
2023/07/22 15:31:00;;;;;;;12.33;5.67;;;;;;;;;;6220721;28;20049;-61
2023/07/22 15:34:02;;;;;;;12.40;6.27;;;;;;;;;;6219746;28;20044;-62
2023/07/22 15:37:03;;;;;;;13.20;6.72;;;;;;;;;;6222000;28;20038;-62
2023/07/22 15:40:04;;;;;;;9.02;5.85;;;;;;;;;;6221358;28;20056;-62
2023/07/22 15:43:04;;;;;;;9.38;5.40;;;;;;;;;;6220832;28;20464;-62
2023/07/22 15:46:05;;;;;;;10.82;5.20;;;;;;;;;;6222986;28;20128;-63
2023/07/22 15:49:06;;;;;;;10.67;6.23;;;;;;;;;;6221523;28;20420;-63
2023/07/22 15:52:07;;;;;;;9.50;5.70;;;;;;;;;;6221256;28;20140;-62
2023/07/22 15:55:07;;;;;;;7.90;5.13;;;;;;;;;;6223541;28;20501;-62
2023/07/22 15:58:08;;;;;;;8.73;5.90;;;;;;;;;;6222230;28;20493;-62
2023/07/22 16:01:09;;;;;;;9.23;5.30;;;;;;;;;;6220771;28;20850;-61
2023/07/22 16:04:09;;;;;;;8.90;5.03;;;;;;;;;;6219662;28;20447;-62
2023/07/22 16:07:10;;;;;;;10.07;5.03;;;;;;;;;;6222126;28;20294;-62
2023/07/22 16:10:10;;;;;;;9.43;4.97;;;;;;;;;;6223343;28;20144;-61
2023/07/22 16:13:11;;;;;;;7.13;4.30;;;;;;;;;;6222019;28;20045;-62
2023/07/22 16:16:13;;;;;;;10.57;5.25;;;;;;;;;;6222344;28;20117;-62
2023/07/22 16:19:14;;;;;;;8.60;4.90;;;;;;;;;;6221894;28;20226;-62
2023/07/22 16:22:14;;;;;;;7.10;4.83;;;;;;;;;;6221224;28;20045;-62
2023/07/22 16:25:15;;;;;;;8.00;4.73;;;;;;;;;;6221787;28;20049;-62
2023/07/22 16:28:16;;;;;;;11.30;5.60;;;;;;;;;;6223216;28;20107;-63
2023/07/22 16:31:16;;;;;;;10.70;6.27;;;;;;;;;;6221845;28;20053;-62
2023/07/22 16:34:18;;;;;;;11.53;5.03;;;;;;;;;;6229838;28;20199;-62
2023/07/22 16:37:18;;;;;;;8.52;5.00;;;;;;;;;;6223009;28;20049;-62
2023/07/22 16:40:19;;;;;;;10.90;5.30;;;;;;;;;;6221561;28;20179;-62
2023/07/22 16:43:20;;;;;;;13.60;5.50;;;;;;;;;;6220703;28;20058;-62
2023/07/22 16:46:22;;;;;;;8.20;5.00;;;;;;;;;;6214623;28;20073;-62
2023/07/22 16:49:22;;;;;;;8.05;5.53;;;;;;;;;;6222013;28;20451;-62
2023/07/22 16:52:23;;;;;;;8.40;5.47;;;;;;;;;;6222702;28;20072;-62
2023/07/22 16:55:23;;;;;;;10.63;5.50;;;;;;;;;;6227057;28;20045;-62
2023/07/22 16:58:24;;;;;;;9.17;5.67;;;;;;;;;;6226062;28;20058;-62
2023/07/22 17:01:24;;;;;;;9.57;5.73;;;;;;;;;;6225125;28;20053;-62
2023/07/22 17:04:25;;;;;;;10.53;6.30;;;;;;;;;;6227126;28;20049;-62
2023/07/22 17:07:26;;;;;;;9.60;5.97;;;;;;;;;;6223337;28;20056;-62
2023/07/22 17:10:27;;;;;;;13.68;7.15;;;;;;;;;;6223308;28;20989;-62
2023/07/22 17:13:28;;;;;;;20.27;9.27;;;;;;;;;;6227016;28;20479;-62
2023/07/22 17:16:30;;;;;;;19.47;9.67;;;;;;;;;;6223975;28;20493;-62
2023/07/22 17:19:31;;;;;;;17.90;10.20;;;;;;;;;;6223803;28;20072;-62
2023/07/22 17:22:32;;;;;;;16.90;9.10;;;;;;;;;;6221482;28;20145;-62
2023/07/22 17:25:32;;;;;;;10.10;6.03;;;;;;;;;;6226444;28;20046;-62
2023/07/22 17:28:33;;;;;;;12.27;6.13;;;;;;;;;;6226248;28;20046;-62
2023/07/22 17:31:33;;;;;;;9.40;6.47;;;;;;;;;;6222130;28;20464;-62
2023/07/22 17:34:34;;;;;;;10.67;6.43;;;;;;;;;;6224163;28;20046;-63
2023/07/22 17:37:34;;;;;;;10.27;6.23;;;;;;;;;;6225734;28;20042;-62
2023/07/22 17:40:35;;;;;;;11.33;6.30;;;;;;;;;;6223028;28;20079;-62
2023/07/22 17:43:36;;;;;;;12.07;6.73;;;;;;;;;;6226197;28;20084;-62
2023/07/22 17:46:39;;;;;;;8.80;6.60;;;;;;;;;;6223462;28;20045;-62
2023/07/22 18:01:20;;;;;;;12.20;7.97;;;;;;;;;;6214093;28;20050;-61